sensor_id;sensor_type;location;lat;lon;timestamp;pressure;altitude;pressure_sealevel;temperature;humidity
41636;BME280;27623;51.966;4.602;2022-11-15T00:02:06;64055.03;;;8.69;100.00
41636;BME280;27623;51.966;4.602;2022-11-15T00:04:31;64026.19;;;8.56;100.00
41636;BME280;27623;51.966;4.602;2022-11-15T00:06:57;64023.09;;;8.55;100.00
41636;BME280;27623;51.966;4.602;2022-11-15T00:09:22;64037.81;;;8.41;100.00
41636;BME280;27623;51.966;4.602;2022-11-15T00:11:48;64034.72;;;8.54;100.00
41636;BME280;27623;51.966;4.602;2022-11-15T00:14:16;64032.16;;;8.61;100.00
41636;BME280;27623;51.966;4.602;2022-11-15T00:16:42;64054.13;;;8.63;100.00
41636;BME280;27623;51.966;4.602;2022-11-15T00:19:09;64068.81;;;8.63;100.00
41636;BME280;27623;51.966;4.602;2022-11-15T00:21:35;64019.88;;;8.38;100.00
41636;BME280;27623;51.966;4.602;2022-11-15T00:24:00;64037.09;;;8.31;100.00
41636;BME280;27623;51.966;4.602;2022-11-15T00:26:26;64041.59;;;8.58;100.00
41636;BME280;27623;51.966;4.602;2022-11-15T00:28:54;64024.41;;;8.45;100.00
41636;BME280;27623;51.966;4.602;2022-11-15T00:31:19;64018.19;;;8.58;100.00
41636;BME280;27623;51.966;4.602;2022-11-15T00:33:45;64038.88;;;8.56;100.00
41636;BME280;27623;51.966;4.602;2022-11-15T00:36:11;64050.31;;;8.52;100.00
41636;BME280;27623;51.966;4.602;2022-11-15T00:38:38;64048.13;;;8.57;100.00
41636;BME280;27623;51.966;4.602;2022-11-15T00:41:05;64055.75;;;8.57;100.00
41636;BME280;27623;51.966;4.602;2022-11-15T00:43:31;64065.00;;;8.59;100.00
41636;BME280;27623;51.966;4.602;2022-11-15T00:45:57;64038.00;;;8.50;100.00
41636;BME280;27623;51.966;4.602;2022-11-15T00:48:22;64052.13;;;8.71;100.00
41636;BME280;27623;51.966;4.602;2022-11-15T00:50:50;64061.53;;;8.75;100.00
41636;BME280;27623;51.966;4.602;2022-11-15T00:53:16;64070.97;;;8.72;100.00
41636;BME280;27623;51.966;4.602;2022-11-15T00:55:42;64072.41;;;8.78;100.00
41636;BME280;27623;51.966;4.602;2022-11-15T00:58:07;64039.56;;;8.73;100.00
41636;BME280;27623;51.966;4.602;2022-11-15T01:00:33;64058.28;;;8.57;100.00
41636;BME280;27623;51.966;4.602;2022-11-15T01:03:00;64036.34;;;8.56;100.00
41636;BME280;27623;51.966;4.602;2022-11-15T01:05:26;64054.84;;;8.59;100.00
41636;BME280;27623;51.966;4.602;2022-11-15T01:07:52;64060.09;;;8.69;100.00
41636;BME280;27623;51.966;4.602;2022-11-15T01:10:18;64089.09;;;8.77;100.00
41636;BME280;27623;51.966;4.602;2022-11-15T01:12:44;64048.28;;;8.74;100.00
41636;BME280;27623;51.966;4.602;2022-11-15T01:15:09;64077.88;;;8.69;100.00
41636;BME280;27623;51.966;4.602;2022-11-15T01:17:35;64063.34;;;8.79;100.00
41636;BME280;27623;51.966;4.602;2022-11-15T01:20:00;64078.41;;;8.76;100.00
41636;BME280;27623;51.966;4.602;2022-11-15T01:22:26;64103.81;;;8.90;100.00
41636;BME280;27623;51.966;4.602;2022-11-15T01:24:51;64047.59;;;8.71;100.00
41636;BME280;27623;51.966;4.602;2022-11-15T01:27:17;64046.50;;;8.63;100.00
41636;BME280;27623;51.966;4.602;2022-11-15T01:29:42;64078.44;;;8.69;100.00
41636;BME280;27623;51.966;4.602;2022-11-15T01:32:08;64039.03;;;8.80;100.00
41636;BME280;27623;51.966;4.602;2022-11-15T01:34:33;64082.03;;;8.77;100.00
41636;BME280;27623;51.966;4.602;2022-11-15T01:37:01;64070.41;;;8.85;100.00
41636;BME280;27623;51.966;4.602;2022-11-15T01:39:27;64094.91;;;8.87;100.00
41636;BME280;27623;51.966;4.602;2022-11-15T01:41:53;64100.53;;;8.87;100.00
41636;BME280;27623;51.966;4.602;2022-11-15T01:47:02;64076.59;;;8.79;100.00
41636;BME280;27623;51.966;4.602;2022-11-15T01:49:30;64064.78;;;8.92;100.00
41636;BME280;27623;51.966;4.602;2022-11-15T01:51:58;64089.44;;;8.96;100.00
41636;BME280;27623;51.966;4.602;2022-11-15T01:54:24;64097.41;;;9.01;100.00
41636;BME280;27623;51.966;4.602;2022-11-15T01:56:59;64095.06;;;9.11;100.00
41636;BME280;27623;51.966;4.602;2022-11-15T01:59:27;64113.56;;;9.00;100.00
41636;BME280;27623;51.966;4.602;2022-11-15T02:01:53;64123.19;;;8.99;100.00
41636;BME280;27623;51.966;4.602;2022-11-15T02:04:24;64135.53;;;9.08;100.00
41636;BME280;27623;51.966;4.602;2022-11-15T02:06:50;64113.56;;;9.00;100.00
41636;BME280;27623;51.966;4.602;2022-11-15T02:09:17;64084.53;;;9.06;100.00
41636;BME280;27623;51.966;4.602;2022-11-15T02:11:46;64108.66;;;9.09;100.00
41636;BME280;27623;51.966;4.602;2022-11-15T02:14:13;64117.00;;;9.12;100.00
41636;BME280;27623;51.966;4.602;2022-11-15T02:22:37;64096.50;;;9.10;100.00
41636;BME280;27623;51.966;4.602;2022-11-15T02:33:03;64113.38;;;9.11;100.00
41636;BME280;27623;51.966;4.602;2022-11-15T02:36:01;64069.09;;;9.10;100.00
41636;BME280;27623;51.966;4.602;2022-11-15T02:38:40;64142.22;;;9.24;100.00
41636;BME280;27623;51.966;4.602;2022-11-15T02:41:15;64120.25;;;9.15;100.00
41636;BME280;27623;51.966;4.602;2022-11-15T02:43:59;64139.13;;;9.23;100.00
41636;BME280;27623;51.966;4.602;2022-11-15T02:46:45;64159.84;;;9.28;100.00
41636;BME280;27623;51.966;4.602;2022-11-15T02:49:33;64116.06;;;9.21;100.00
41636;BME280;27623;51.966;4.602;2022-11-15T02:51:59;64135.88;;;9.27;100.00
41636;BME280;27623;51.966;4.602;2022-11-15T02:54:29;64161.66;;;9.25;100.00
41636;BME280;27623;51.966;4.602;2022-11-15T02:57:00;64132.78;;;9.27;100.00
41636;BME280;27623;51.966;4.602;2022-11-15T03:10:42;64193.03;;;9.52;100.00
41636;BME280;27623;51.966;4.602;2022-11-15T03:13:31;64186.47;;;9.68;100.00
41636;BME280;27623;51.966;4.602;2022-11-15T03:16:08;64183.38;;;9.67;100.00
41636;BME280;27623;51.966;4.602;2022-11-15T03:18:51;64183.38;;;9.67;100.00
41636;BME280;27623;51.966;4.602;2022-11-15T03:21:19;64185.19;;;9.64;100.00
41636;BME280;27623;51.966;4.602;2022-11-15T03:23:47;64202.09;;;9.65;100.00
41636;BME280;27623;51.966;4.602;2022-11-15T03:26:14;64197.38;;;9.71;100.00
41636;BME280;27623;51.966;4.602;2022-11-15T03:28:50;64235.72;;;9.73;100.00
41636;BME280;27623;51.966;4.602;2022-11-15T03:31:19;64182.66;;;9.71;100.00
41636;BME280;27623;51.966;4.602;2022-11-15T03:34:08;64173.00;;;9.72;100.00
41636;BME280;27623;51.966;4.602;2022-11-15T03:36:36;64201.72;;;9.75;100.00
41636;BME280;27623;51.966;4.602;2022-11-15T03:39:06;64222.25;;;9.77;100.00
41636;BME280;27623;51.966;4.602;2022-11-15T03:47:26;64218.41;;;9.88;100.00
41636;BME280;27623;51.966;4.602;2022-11-15T03:49:57;64219.69;;;9.91;100.00
41636;BME280;27623;51.966;4.602;2022-11-15T03:52:24;64195.88;;;9.86;100.00
41636;BME280;27623;51.966;4.602;2022-11-15T03:54:55;64213.69;;;9.86;100.00
41636;BME280;27623;51.966;4.602;2022-11-15T03:57:24;64217.69;;;9.92;100.00
41636;BME280;27623;51.966;4.602;2022-11-15T03:59:50;64217.09;;;9.98;100.00
41636;BME280;27623;51.966;4.602;2022-11-15T04:02:15;64226.00;;;10.02;100.00
41636;BME280;27623;51.966;4.602;2022-11-15T04:04:40;64256.56;;;10.02;100.00
41636;BME280;27623;51.966;4.602;2022-11-15T04:07:06;64247.09;;;9.98;100.00
41636;BME280;27623;51.966;4.602;2022-11-15T04:09:31;64229.69;;;9.96;100.00
41636;BME280;27623;51.966;4.602;2022-11-15T04:11:57;64233.28;;;10.04;100.00
41636;BME280;27623;51.966;4.602;2022-11-15T04:14:22;64200.19;;;10.04;100.00
41636;BME280;27623;51.966;4.602;2022-11-15T04:16:48;64257.47;;;10.15;100.00
41636;BME280;27623;51.966;4.602;2022-11-15T04:19:13;64227.25;;;10.20;100.00
41636;BME280;27623;51.966;4.602;2022-11-15T04:21:57;64256.72;;;10.12;100.00
41636;BME280;27623;51.966;4.602;2022-11-15T04:24:42;64246.72;;;10.14;100.00
41636;BME280;27623;51.966;4.602;2022-11-15T04:27:09;64262.91;;;10.20;100.00
41636;BME280;27623;51.966;4.602;2022-11-15T04:29:37;64221.97;;;10.24;100.00
41636;BME280;27623;51.966;4.602;2022-11-15T04:32:04;64278.19;;;10.27;100.00
41636;BME280;27623;51.966;4.602;2022-11-15T04:34:30;64259.97;;;10.29;100.00
41636;BME280;27623;51.966;4.602;2022-11-15T04:36:56;64254.66;;;10.41;100.00
41636;BME280;27623;51.966;4.602;2022-11-15T04:39:41;64265.78;;;10.39;100.00
41636;BME280;27623;51.966;4.602;2022-11-15T04:42:07;64295.97;;;10.41;100.00
41636;BME280;27623;51.966;4.602;2022-11-15T04:44:33;64298.91;;;10.39;100.00
41636;BME280;27623;51.966;4.602;2022-11-15T04:46:58;64244.16;;;10.36;100.00
41636;BME280;27623;51.966;4.602;2022-11-15T04:49:26;64248.69;;;10.35;100.00
41636;BME280;27623;51.966;4.602;2022-11-15T04:51:52;64307.28;;;10.35;100.00
41636;BME280;27623;51.966;4.602;2022-11-15T04:54:18;64263.97;;;10.35;100.00
41636;BME280;27623;51.966;4.602;2022-11-15T04:56:43;64274.34;;;10.38;100.00
41636;BME280;27623;51.966;4.602;2022-11-15T04:59:12;64281.22;;;10.49;100.00
41636;BME280;27623;51.966;4.602;2022-11-15T05:01:37;64308.16;;;10.55;100.00
41636;BME280;27623;51.966;4.602;2022-11-15T05:04:03;64322.88;;;10.54;100.00
41636;BME280;27623;51.966;4.602;2022-11-15T05:06:45;64313.06;;;10.59;100.00
41636;BME280;27623;51.966;4.602;2022-11-15T05:09:10;64329.63;;;10.56;100.00
41636;BME280;27623;51.966;4.602;2022-11-15T05:11:38;64295.56;;;10.64;100.00
41636;BME280;27623;51.966;4.602;2022-11-15T05:14:03;64321.22;;;10.67;100.00
41636;BME280;27623;51.966;4.602;2022-11-15T05:16:29;64306.47;;;10.67;100.00
41636;BME280;27623;51.966;4.602;2022-11-15T05:18:54;64332.69;;;10.71;100.00
41636;BME280;27623;51.966;4.602;2022-11-15T05:21:20;64304.47;;;10.68;100.00
41636;BME280;27623;51.966;4.602;2022-11-15T05:23:46;64297.38;;;10.61;100.00
41636;BME280;27623;51.966;4.602;2022-11-15T05:26:16;64325.03;;;10.63;100.00
41636;BME280;27623;51.966;4.602;2022-11-15T05:28:42;64343.97;;;10.64;100.00
41636;BME280;27623;51.966;4.602;2022-11-15T05:31:13;64285.72;;;10.62;100.00
41636;BME280;27623;51.966;4.602;2022-11-15T05:33:39;64333.22;;;10.64;100.00
41636;BME280;27623;51.966;4.602;2022-11-15T05:36:20;64304.47;;;10.68;100.00
41636;BME280;27623;51.966;4.602;2022-11-15T05:38:48;64312.09;;;10.75;100.00
41636;BME280;27623;51.966;4.602;2022-11-15T05:41:15;64318.66;;;10.67;100.00
41636;BME280;27623;51.966;4.602;2022-11-15T05:43:45;64305.56;;;10.69;100.00
41636;BME280;27623;51.966;4.602;2022-11-15T05:46:12;64301.19;;;10.65;100.00
41636;BME280;27623;51.966;4.602;2022-11-15T05:48:41;64328.69;;;10.64;100.00
41636;BME280;27623;51.966;4.602;2022-11-15T05:51:09;64311.56;;;10.60;100.00
41636;BME280;27623;51.966;4.602;2022-11-15T05:53:35;64313.56;;;10.60;100.00
41636;BME280;27623;51.966;4.602;2022-11-15T05:56:03;64324.31;;;10.60;100.00
41636;BME280;27623;51.966;4.602;2022-11-15T05:58:31;64297.59;;;10.57;100.00
41636;BME280;27623;51.966;4.602;2022-11-15T06:00:57;64315.59;;;10.59;100.00
41636;BME280;27623;51.966;4.602;2022-11-15T06:03:22;64312.66;;;10.61;100.00
41636;BME280;27623;51.966;4.602;2022-11-15T06:05:48;64330.88;;;10.66;100.00
41636;BME280;27623;51.966;4.602;2022-11-15T06:08:13;64349.78;;;10.67;100.00
41636;BME280;27623;51.966;4.602;2022-11-15T06:10:39;64310.28;;;10.71;100.00
41636;BME280;27623;51.966;4.602;2022-11-15T06:13:04;64288.81;;;10.63;100.00
41636;BME280;27623;51.966;4.602;2022-11-15T06:15:32;64344.34;;;10.62;100.00
41636;BME280;27623;51.966;4.602;2022-11-15T06:17:57;64283.19;;;10.62;100.00
41636;BME280;27623;51.966;4.602;2022-11-15T06:20:24;64293.19;;;10.60;100.00
41636;BME280;27623;51.966;4.602;2022-11-15T06:22:50;64303.19;;;10.64;100.00
41636;BME280;27623;51.966;4.602;2022-11-15T06:25:16;64306.66;;;10.63;100.00
41636;BME280;27623;51.966;4.602;2022-11-15T06:27:41;64309.94;;;10.66;100.00
41636;BME280;27623;51.966;4.602;2022-11-15T06:30:07;64345.63;;;10.59;100.00
41636;BME280;27623;51.966;4.602;2022-11-15T06:32:32;64345.09;;;10.58;100.00
41636;BME280;27623;51.966;4.602;2022-11-15T06:34:58;64274.50;;;10.47;100.00
41636;BME280;27623;51.966;4.602;2022-11-15T06:37:23;64298.16;;;10.43;100.00
41636;BME280;27623;51.966;4.602;2022-11-15T06:39:48;64302.69;;;10.50;100.00
41636;BME280;27623;51.966;4.602;2022-11-15T06:42:14;64296.31;;;10.46;100.00
41636;BME280;27623;51.966;4.602;2022-11-15T06:44:39;64324.91;;;10.47;100.00
41636;BME280;27623;51.966;4.602;2022-11-15T06:47:05;64274.69;;;10.43;100.00
41636;BME280;27623;51.966;4.602;2022-11-15T06:49:30;64276.34;;;10.37;100.00
41636;BME280;27623;51.966;4.602;2022-11-15T06:51:56;64284.34;;;10.35;100.00
41636;BME280;27623;51.966;4.602;2022-11-15T06:54:25;64279.81;;;10.36;100.00
41636;BME280;27623;51.966;4.602;2022-11-15T06:56:50;64285.44;;;10.29;100.00
41636;BME280;27623;51.966;4.602;2022-11-15T06:59:16;64264.72;;;10.31;100.00
41636;BME280;27623;51.966;4.602;2022-11-15T07:01:41;64282.00;;;10.38;100.00
41636;BME280;27623;51.966;4.602;2022-11-15T07:04:06;64308.00;;;10.38;100.00
41636;BME280;27623;51.966;4.602;2022-11-15T07:06:32;64280.34;;;10.36;100.00
41636;BME280;27623;51.966;4.602;2022-11-15T07:08:58;64280.16;;;10.41;100.00
41636;BME280;27623;51.966;4.602;2022-11-15T07:11:23;64264.53;;;10.36;100.00
41636;BME280;27623;51.966;4.602;2022-11-15T07:13:48;64267.63;;;10.36;100.00
41636;BME280;27623;51.966;4.602;2022-11-15T07:16:14;64275.97;;;10.39;100.00
41636;BME280;27623;51.966;4.602;2022-11-15T07:18:39;64268.53;;;10.35;100.00
41636;BME280;27623;51.966;4.602;2022-11-15T07:21:08;64255.63;;;10.32;100.00
41636;BME280;27623;51.966;4.602;2022-11-15T07:23:38;64261.78;;;10.33;100.00
41636;BME280;27623;51.966;4.602;2022-11-15T07:26:04;64271.03;;;10.42;100.00
41636;BME280;27623;51.966;4.602;2022-11-15T07:28:29;64275.59;;;10.41;100.00
41636;BME280;27623;51.966;4.602;2022-11-15T07:30:55;64273.38;;;10.53;100.00
41636;BME280;27623;51.966;4.602;2022-11-15T07:33:21;64269.56;;;10.50;100.00
41636;BME280;27623;51.966;4.602;2022-11-15T07:35:46;64266.88;;;10.40;100.00
41636;BME280;27623;51.966;4.602;2022-11-15T07:38:15;64283.78;;;10.49;100.00
41636;BME280;27623;51.966;4.602;2022-11-15T07:40:44;64291.78;;;10.47;100.00
41636;BME280;27623;51.966;4.602;2022-11-15T07:43:10;64276.16;;;10.35;100.00
41636;BME280;27623;51.966;4.602;2022-11-15T07:45:44;64280.16;;;10.33;100.00
41636;BME280;27623;51.966;4.602;2022-11-15T07:48:10;64275.03;;;10.41;100.00
41636;BME280;27623;51.966;4.602;2022-11-15T07:50:40;64277.44;;;10.38;100.00
41636;BME280;27623;51.966;4.602;2022-11-15T07:53:05;64280.34;;;10.36;100.00
41636;BME280;27623;51.966;4.602;2022-11-15T07:55:31;64288.34;;;10.34;100.00
41636;BME280;27623;51.966;4.602;2022-11-15T07:58:03;64271.25;;;10.30;100.00
41636;BME280;27623;51.966;4.602;2022-11-15T08:00:29;64264.34;;;10.26;100.00
41636;BME280;27623;51.966;4.602;2022-11-15T08:03:15;64276.91;;;10.30;100.00
41636;BME280;27623;51.966;4.602;2022-11-15T08:05:42;64233.78;;;10.33;100.00
41636;BME280;27623;51.966;4.602;2022-11-15T08:08:09;64258.88;;;10.35;100.00
41636;BME280;27623;51.966;4.602;2022-11-15T08:10:35;64305.28;;;10.36;100.00
41636;BME280;27623;51.966;4.602;2022-11-15T08:13:09;64290.88;;;10.41;100.00
41636;BME280;27623;51.966;4.602;2022-11-15T08:15:35;64298.16;;;10.43;100.00
41636;BME280;27623;51.966;4.602;2022-11-15T08:18:03;64303.59;;;10.48;100.00
41636;BME280;27623;51.966;4.602;2022-11-15T08:20:29;64311.78;;;10.49;100.00
41636;BME280;27623;51.966;4.602;2022-11-15T08:22:59;64286.84;;;10.56;100.00
41636;BME280;27623;51.966;4.602;2022-11-15T08:25:26;64285.78;;;10.48;100.00
41636;BME280;27623;51.966;4.602;2022-11-15T08:27:57;64274.84;;;10.52;100.00
41636;BME280;27623;51.966;4.602;2022-11-15T08:30:23;64302.50;;;10.54;100.00
41636;BME280;27623;51.966;4.602;2022-11-15T08:32:50;64303.56;;;10.62;100.00
41636;BME280;27623;51.966;4.602;2022-11-15T08:35:16;64323.41;;;10.62;100.00
41636;BME280;27623;51.966;4.602;2022-11-15T08:37:42;64246.81;;;10.59;100.00
41636;BME280;27623;51.966;4.602;2022-11-15T08:40:08;64313.75;;;10.70;100.00
41636;BME280;27623;51.966;4.602;2022-11-15T08:42:34;64343.59;;;10.66;100.00
41636;BME280;27623;51.966;4.602;2022-11-15T08:45:00;64277.38;;;10.59;100.00
41636;BME280;27623;51.966;4.602;2022-11-15T08:47:26;64290.47;;;10.64;100.00
41636;BME280;27623;51.966;4.602;2022-11-15T08:49:52;64323.03;;;10.71;100.00
41636;BME280;27623;51.966;4.602;2022-11-15T08:52:20;64291.72;;;10.75;100.00
41636;BME280;27623;51.966;4.602;2022-11-15T08:54:46;64334.81;;;10.87;100.00
41636;BME280;27623;51.966;4.602;2022-11-15T08:57:11;64356.28;;;10.95;100.00
41636;BME280;27623;51.966;4.602;2022-11-15T08:59:37;64333.22;;;10.78;100.00
41636;BME280;27623;51.966;4.602;2022-11-15T09:02:03;64360.50;;;10.82;100.00
41636;BME280;27623;51.966;4.602;2022-11-15T09:04:29;64344.47;;;10.86;100.00
41636;BME280;27623;51.966;4.602;2022-11-15T09:06:54;64358.44;;;11.04;100.00
41636;BME280;27623;51.966;4.602;2022-11-15T09:09:20;64374.28;;;11.05;100.00
41636;BME280;27623;51.966;4.602;2022-11-15T09:11:45;64364.06;;;11.19;100.00
41636;BME280;27623;51.966;4.602;2022-11-15T09:14:12;64376.09;;;11.16;100.00
41636;BME280;27623;51.966;4.602;2022-11-15T09:16:38;64393.19;;;11.27;100.00
41636;BME280;27623;51.966;4.602;2022-11-15T09:19:03;64362.03;;;11.26;100.00
41636;BME280;27623;51.966;4.602;2022-11-15T09:21:29;64391.91;;;11.30;100.00
41636;BME280;27623;51.966;4.602;2022-11-15T09:23:55;64367.84;;;11.29;100.00
41636;BME280;27623;51.966;4.602;2022-11-15T09:26:20;64374.41;;;11.28;100.00
41636;BME280;27623;51.966;4.602;2022-11-15T09:28:46;64390.22;;;11.43;100.00
41636;BME280;27623;51.966;4.602;2022-11-15T09:31:13;64401.84;;;11.49;100.00
41636;BME280;27623;51.966;4.602;2022-11-15T09:33:39;64422.78;;;11.64;100.00
41636;BME280;27623;51.966;4.602;2022-11-15T09:36:07;64434.78;;;11.68;100.00
41636;BME280;27623;51.966;4.602;2022-11-15T09:38:33;64464.47;;;11.91;100.00
41636;BME280;27623;51.966;4.602;2022-11-15T09:43:59;64490.94;;;11.82;100.00
41636;BME280;27623;51.966;4.602;2022-11-15T09:49:42;64479.59;;;12.02;100.00
41636;BME280;27623;51.966;4.602;2022-11-15T09:52:10;64475.34;;;12.08;100.00
41636;BME280;27623;51.966;4.602;2022-11-15T09:54:37;64468.19;;;12.23;100.00
41636;BME280;27623;51.966;4.602;2022-11-15T09:57:12;64471.84;;;12.24;100.00
41636;BME280;27623;51.966;4.602;2022-11-15T10:00:07;64477.53;;;12.17;100.00
41636;BME280;27623;51.966;4.602;2022-11-15T10:02:56;64481.72;;;12.19;100.00
41636;BME280;27623;51.966;4.602;2022-11-15T10:05:24;64496.69;;;12.14;100.00
41636;BME280;27623;51.966;4.602;2022-11-15T10:08:05;64450.72;;;12.14;100.00
41636;BME280;27623;51.966;4.602;2022-11-15T10:10:41;64507.06;;;12.23;100.00
41636;BME280;27623;51.966;4.602;2022-11-15T10:13:15;64523.09;;;12.26;100.00
41636;BME280;27623;51.966;4.602;2022-11-15T10:15:43;64483.50;;;12.30;100.00
41636;BME280;27623;51.966;4.602;2022-11-15T10:18:35;64546.56;;;12.55;100.00
41636;BME280;27623;51.966;4.602;2022-11-15T10:21:20;64533.13;;;12.38;100.00
41636;BME280;27623;51.966;4.602;2022-11-15T10:23:46;64499.72;;;12.35;100.00
41636;BME280;27623;51.966;4.602;2022-11-15T10:26:15;64496.59;;;12.42;100.00
41636;BME280;27623;51.966;4.602;2022-11-15T10:28:41;64535.78;;;12.62;100.00
41636;BME280;27623;51.966;4.602;2022-11-15T10:31:25;64542.13;;;12.72;100.00
41636;BME280;27623;51.966;4.602;2022-11-15T10:33:53;64570.03;;;12.77;100.00
41636;BME280;27623;51.966;4.602;2022-11-15T10:36:23;64551.13;;;12.62;100.00
41636;BME280;27623;51.966;4.602;2022-11-15T10:38:54;64544.88;;;12.68;100.00
41636;BME280;27623;51.966;4.602;2022-11-15T10:41:29;64554.03;;;12.67;100.00
41636;BME280;27623;51.966;4.602;2022-11-15T10:46:34;64571.41;;;13.04;100.00
41636;BME280;27623;51.966;4.602;2022-11-15T10:51:42;64540.66;;;12.73;100.00
41636;BME280;27623;51.966;4.602;2022-11-15T10:54:11;64569.66;;;12.86;100.00
41636;BME280;27623;51.966;4.602;2022-11-15T10:56:39;64530.78;;;12.79;100.00
41636;BME280;27623;51.966;4.602;2022-11-15T10:59:15;64578.94;;;12.95;100.00
41636;BME280;27623;51.966;4.602;2022-11-15T11:01:48;64560.13;;;12.89;100.00
41636;BME280;27623;51.966;4.602;2022-11-15T11:04:14;64594.75;;;13.17;100.00
41636;BME280;27623;51.966;4.602;2022-11-15T11:09:31;64612.59;;;13.31;100.00
41636;BME280;27623;51.966;4.602;2022-11-15T11:11:57;64636.25;;;13.17;98.38
41636;BME280;27623;51.966;4.602;2022-11-15T11:14:35;64613.38;;;13.13;100.00
41636;BME280;27623;51.966;4.602;2022-11-15T11:25:03;64548.09;;;12.85;99.87
41636;BME280;27623;51.966;4.602;2022-11-15T11:30:47;64586.06;;;12.94;99.93
41636;BME280;27623;51.966;4.602;2022-11-15T11:33:22;64649.75;;;13.20;97.56
41636;BME280;27623;51.966;4.602;2022-11-15T11:38:58;64547.13;;;13.01;98.08
41636;BME280;27623;51.966;4.602;2022-11-15T11:47:03;64623.25;;;13.22;98.00
41636;BME280;27623;51.966;4.602;2022-11-15T11:49:46;64615.75;;;13.24;96.56
41636;BME280;27623;51.966;4.602;2022-11-15T12:00:21;64730.59;;;14.17;93.48
41636;BME280;27623;51.966;4.602;2022-11-15T12:03:09;64754.91;;;14.27;91.25
41636;BME280;27623;51.966;4.602;2022-11-15T12:05:57;64778.81;;;14.47;89.53
41636;BME280;27623;51.966;4.602;2022-11-15T12:11:12;64734.03;;;14.29;88.77
41636;BME280;27623;51.966;4.602;2022-11-15T12:13:39;64733.41;;;14.43;88.44
41636;BME280;27623;51.966;4.602;2022-11-15T12:16:31;64765.84;;;14.37;87.97
41636;BME280;27623;51.966;4.602;2022-11-15T12:19:00;64782.13;;;14.50;86.32
41636;BME280;27623;51.966;4.602;2022-11-15T12:22:02;64775.19;;;14.77;85.46
41636;BME280;27623;51.966;4.602;2022-11-15T12:24:34;64832.84;;;14.95;84.54
41636;BME280;27623;51.966;4.602;2022-11-15T12:27:05;64812.13;;;14.92;84.10
41636;BME280;27623;51.966;4.602;2022-11-15T12:29:38;64802.59;;;14.95;83.98
41636;BME280;27623;51.966;4.602;2022-11-15T12:32:05;64816.69;;;14.99;82.42
41636;BME280;27623;51.966;4.602;2022-11-15T12:34:41;64798.44;;;14.79;81.86
41636;BME280;27623;51.966;4.602;2022-11-15T12:42:40;64807.34;;;14.97;83.24
41636;BME280;27623;51.966;4.602;2022-11-15T12:45:36;64775.44;;;14.65;82.49
41636;BME280;27623;51.966;4.602;2022-11-15T12:49:07;64762.00;;;14.41;83.33
41636;BME280;27623;51.966;4.602;2022-11-15T12:51:11;64717.53;;;14.28;84.91
41636;BME280;27623;51.966;4.602;2022-11-15T12:53:36;64727.19;;;14.42;84.96
41636;BME280;27623;51.966;4.602;2022-11-15T12:58:53;64733.38;;;14.12;84.68
41636;BME280;27623;51.966;4.602;2022-11-15T13:11:53;64636.41;;;13.65;89.02
41636;BME280;27623;51.966;4.602;2022-11-15T13:14:48;64672.09;;;13.62;87.16
41636;BME280;27623;51.966;4.602;2022-11-15T13:17:27;64632.44;;;13.52;88.39
41636;BME280;27623;51.966;4.602;2022-11-15T13:22:26;64624.38;;;13.61;87.13
41636;BME280;27623;51.966;4.602;2022-11-15T13:30:48;64554.13;;;13.29;88.51
41636;BME280;27623;51.966;4.602;2022-11-15T13:33:20;64629.28;;;13.27;89.62
41636;BME280;27623;51.966;4.602;2022-11-15T13:35:49;64563.50;;;13.16;88.58
41636;BME280;27623;51.966;4.602;2022-11-15T13:38:29;64596.78;;;13.16;89.31
41636;BME280;27623;51.966;4.602;2022-11-15T13:40:56;64614.47;;;13.14;87.26
41636;BME280;27623;51.966;4.602;2022-11-15T13:46:32;64573.78;;;13.02;88.29
41636;BME280;27623;51.966;4.602;2022-11-15T13:49:01;64596.09;;;12.99;86.94
41636;BME280;27623;51.966;4.602;2022-11-15T13:51:37;64572.53;;;12.98;88.09
41636;BME280;27623;51.966;4.602;2022-11-15T13:56:49;64557.97;;;12.87;88.91
41636;BME280;27623;51.966;4.602;2022-11-15T13:59:25;64530.38;;;12.88;88.56
41636;BME280;27623;51.966;4.602;2022-11-15T14:01:51;64522.53;;;12.85;90.59
41636;BME280;27623;51.966;4.602;2022-11-15T14:04:20;64605.25;;;12.91;90.29
41636;BME280;27623;51.966;4.602;2022-11-15T14:06:53;64578.44;;;12.80;90.67
41636;BME280;27623;51.966;4.602;2022-11-15T14:09:40;64567.66;;;12.80;90.03
41636;BME280;27623;51.966;4.602;2022-11-15T14:12:22;64569.31;;;12.81;91.71
41636;BME280;27623;51.966;4.602;2022-11-15T14:14:48;64544.66;;;12.80;90.52
41636;BME280;27623;51.966;4.602;2022-11-15T14:17:32;64540.09;;;12.80;90.80
41636;BME280;27623;51.966;4.602;2022-11-15T14:20:01;64579.91;;;12.79;91.52
41636;BME280;27623;51.966;4.602;2022-11-15T14:22:28;64522.56;;;12.78;91.18
41636;BME280;27623;51.966;4.602;2022-11-15T14:25:16;64559.75;;;12.91;90.49
41636;BME280;27623;51.966;4.602;2022-11-15T14:28:28;64553.53;;;12.90;92.26
41636;BME280;27623;51.966;4.602;2022-11-15T14:30:57;64569.44;;;12.91;91.92
41636;BME280;27623;51.966;4.602;2022-11-15T14:33:34;64540.25;;;12.83;91.68
41636;BME280;27623;51.966;4.602;2022-11-15T14:36:15;64545.19;;;12.80;92.04
41636;BME280;27623;51.966;4.602;2022-11-15T14:38:41;64561.09;;;12.81;93.57
41636;BME280;27623;51.966;4.602;2022-11-15T14:41:28;64541.72;;;12.82;93.80
41636;BME280;27623;51.966;4.602;2022-11-15T14:44:02;64557.97;;;12.87;93.91
41636;BME280;27623;51.966;4.602;2022-11-15T14:46:41;64548.47;;;12.83;92.55
41636;BME280;27623;51.966;4.602;2022-11-15T14:49:07;64539.00;;;12.72;93.25
41636;BME280;27623;51.966;4.602;2022-11-15T14:51:32;64557.56;;;12.89;94.70
41636;BME280;27623;51.966;4.602;2022-11-15T14:54:03;64545.56;;;12.78;94.46
41636;BME280;27623;51.966;4.602;2022-11-15T14:56:29;64523.66;;;12.72;95.38
41636;BME280;27623;51.966;4.602;2022-11-15T14:58:54;64552.84;;;12.87;94.77
41636;BME280;27623;51.966;4.602;2022-11-15T15:01:24;64523.44;;;12.84;97.64